sensor_id;sensor_type;location;lat;lon;timestamp;P1;durP1;ratioP1;P2;durP2;ratioP2
24801;SDS011;12898;50.520;12.152;2022-10-22T00:01:16;29.27;;;20.73;;
24801;SDS011;12898;50.520;12.152;2022-10-22T00:03:41;28.90;;;21.20;;
24801;SDS011;12898;50.520;12.152;2022-10-22T00:06:07;29.98;;;20.98;;
24801;SDS011;12898;50.520;12.152;2022-10-22T00:08:33;29.02;;;20.90;;
24801;SDS011;12898;50.520;12.152;2022-10-22T00:11:01;27.35;;;19.50;;
24801;SDS011;12898;50.520;12.152;2022-10-22T00:13:36;29.40;;;20.52;;
24801;SDS011;12898;50.520;12.152;2022-10-22T00:16:02;26.98;;;19.50;;
24801;SDS011;12898;50.520;12.152;2022-10-22T00:18:28;27.38;;;20.48;;
24801;SDS011;12898;50.520;12.152;2022-10-22T00:20:54;27.77;;;19.38;;
24801;SDS011;12898;50.520;12.152;2022-10-22T00:23:19;32.92;;;21.27;;
24801;SDS011;12898;50.520;12.152;2022-10-22T00:25:45;28.92;;;20.15;;
24801;SDS011;12898;50.520;12.152;2022-10-22T00:28:11;27.98;;;19.83;;
24801;SDS011;12898;50.520;12.152;2022-10-22T00:30:36;29.77;;;21.00;;
24801;SDS011;12898;50.520;12.152;2022-10-22T00:33:02;31.95;;;20.13;;
24801;SDS011;12898;50.520;12.152;2022-10-22T00:35:28;27.45;;;19.27;;
24801;SDS011;12898;50.520;12.152;2022-10-22T00:37:54;31.48;;;19.60;;
24801;SDS011;12898;50.520;12.152;2022-10-22T00:40:19;26.88;;;19.20;;
24801;SDS011;12898;50.520;12.152;2022-10-22T00:42:45;29.10;;;19.50;;
24801;SDS011;12898;50.520;12.152;2022-10-22T00:47:38;26.55;;;18.60;;
24801;SDS011;12898;50.520;12.152;2022-10-22T00:50:22;27.35;;;18.20;;
24801;SDS011;12898;50.520;12.152;2022-10-22T00:52:51;30.17;;;18.58;;
24801;SDS011;12898;50.520;12.152;2022-10-22T00:55:19;26.00;;;18.45;;
24801;SDS011;12898;50.520;12.152;2022-10-22T00:57:46;25.60;;;18.50;;
24801;SDS011;12898;50.520;12.152;2022-10-22T01:00:13;24.52;;;17.52;;
24801;SDS011;12898;50.520;12.152;2022-10-22T01:02:39;26.25;;;17.80;;
24801;SDS011;12898;50.520;12.152;2022-10-22T01:05:05;23.55;;;16.48;;
24801;SDS011;12898;50.520;12.152;2022-10-22T01:07:31;24.02;;;15.90;;
24801;SDS011;12898;50.520;12.152;2022-10-22T01:12:36;22.00;;;15.45;;
24801;SDS011;12898;50.520;12.152;2022-10-22T01:18:20;26.50;;;18.42;;
24801;SDS011;12898;50.520;12.152;2022-10-22T01:20:59;24.45;;;16.85;;
24801;SDS011;12898;50.520;12.152;2022-10-22T01:27:09;26.63;;;16.80;;
24801;SDS011;12898;50.520;12.152;2022-10-22T01:30:14;25.95;;;17.63;;
24801;SDS011;12898;50.520;12.152;2022-10-22T01:32:45;28.83;;;18.75;;
24801;SDS011;12898;50.520;12.152;2022-10-22T01:35:15;29.40;;;19.15;;
24801;SDS011;12898;50.520;12.152;2022-10-22T01:37:51;27.20;;;18.98;;
24801;SDS011;12898;50.520;12.152;2022-10-22T01:40:22;26.48;;;18.77;;
24801;SDS011;12898;50.520;12.152;2022-10-22T01:42:54;26.90;;;18.48;;
24801;SDS011;12898;50.520;12.152;2022-10-22T01:45:22;26.88;;;17.63;;
24801;SDS011;12898;50.520;12.152;2022-10-22T01:53:36;26.35;;;17.58;;
24801;SDS011;12898;50.520;12.152;2022-10-22T02:07:42;25.73;;;17.25;;
24801;SDS011;12898;50.520;12.152;2022-10-22T02:10:18;26.33;;;17.83;;
24801;SDS011;12898;50.520;12.152;2022-10-22T02:12:47;26.73;;;18.13;;
24801;SDS011;12898;50.520;12.152;2022-10-22T02:15:16;26.40;;;17.27;;
24801;SDS011;12898;50.520;12.152;2022-10-22T02:17:46;29.25;;;18.25;;
24801;SDS011;12898;50.520;12.152;2022-10-22T02:20:15;28.77;;;19.08;;
24801;SDS011;12898;50.520;12.152;2022-10-22T02:22:43;28.33;;;17.90;;
24801;SDS011;12898;50.520;12.152;2022-10-22T02:25:10;26.67;;;18.65;;
24801;SDS011;12898;50.520;12.152;2022-10-22T02:27:39;28.17;;;18.55;;
24801;SDS011;12898;50.520;12.152;2022-10-22T02:30:10;29.45;;;19.20;;
24801;SDS011;12898;50.520;12.152;2022-10-22T02:32:42;28.98;;;19.65;;
24801;SDS011;12898;50.520;12.152;2022-10-22T02:35:22;26.98;;;17.60;;
24801;SDS011;12898;50.520;12.152;2022-10-22T02:37:51;27.00;;;16.88;;
24801;SDS011;12898;50.520;12.152;2022-10-22T02:40:19;25.80;;;17.02;;
24801;SDS011;12898;50.520;12.152;2022-10-22T02:42:46;25.90;;;16.17;;
24801;SDS011;12898;50.520;12.152;2022-10-22T02:45:14;25.15;;;17.00;;
24801;SDS011;12898;50.520;12.152;2022-10-22T02:47:42;22.00;;;15.88;;
24801;SDS011;12898;50.520;12.152;2022-10-22T02:50:08;26.33;;;16.67;;
24801;SDS011;12898;50.520;12.152;2022-10-22T02:52:34;25.83;;;17.70;;
24801;SDS011;12898;50.520;12.152;2022-10-22T02:55:00;24.15;;;16.67;;
24801;SDS011;12898;50.520;12.152;2022-10-22T02:57:26;24.40;;;15.77;;
24801;SDS011;12898;50.520;12.152;2022-10-22T02:59:51;26.55;;;16.33;;
24801;SDS011;12898;50.520;12.152;2022-10-22T03:02:17;22.00;;;14.52;;
24801;SDS011;12898;50.520;12.152;2022-10-22T03:04:43;22.15;;;15.18;;
24801;SDS011;12898;50.520;12.152;2022-10-22T03:07:09;23.13;;;14.90;;
24801;SDS011;12898;50.520;12.152;2022-10-22T03:09:34;22.83;;;14.55;;
24801;SDS011;12898;50.520;12.152;2022-10-22T03:12:00;25.38;;;15.52;;
24801;SDS011;12898;50.520;12.152;2022-10-22T03:14:26;22.83;;;15.57;;
24801;SDS011;12898;50.520;12.152;2022-10-22T03:16:51;23.98;;;15.95;;
24801;SDS011;12898;50.520;12.152;2022-10-22T03:19:17;22.25;;;15.80;;
24801;SDS011;12898;50.520;12.152;2022-10-22T03:21:44;23.88;;;15.57;;
24801;SDS011;12898;50.520;12.152;2022-10-22T03:24:16;20.00;;;14.85;;
24801;SDS011;12898;50.520;12.152;2022-10-22T03:26:49;19.90;;;13.20;;
24801;SDS011;12898;50.520;12.152;2022-10-22T03:29:18;23.08;;;14.73;;
24801;SDS011;12898;50.520;12.152;2022-10-22T03:31:48;20.17;;;13.68;;
24801;SDS011;12898;50.520;12.152;2022-10-22T03:34:13;21.70;;;14.55;;
24801;SDS011;12898;50.520;12.152;2022-10-22T03:36:39;22.25;;;15.43;;
24801;SDS011;12898;50.520;12.152;2022-10-22T03:39:06;21.40;;;14.38;;
24801;SDS011;12898;50.520;12.152;2022-10-22T03:41:32;24.30;;;14.50;;
24801;SDS011;12898;50.520;12.152;2022-10-22T03:43:59;21.10;;;15.10;;
24801;SDS011;12898;50.520;12.152;2022-10-22T03:46:27;21.50;;;15.27;;
24801;SDS011;12898;50.520;12.152;2022-10-22T03:48:53;22.95;;;15.07;;
24801;SDS011;12898;50.520;12.152;2022-10-22T03:51:18;21.70;;;15.55;;
24801;SDS011;12898;50.520;12.152;2022-10-22T03:53:44;26.33;;;16.45;;
24801;SDS011;12898;50.520;12.152;2022-10-22T03:56:10;21.70;;;14.18;;
24801;SDS011;12898;50.520;12.152;2022-10-22T03:58:37;23.63;;;15.65;;
24801;SDS011;12898;50.520;12.152;2022-10-22T04:01:08;22.55;;;15.10;;
24801;SDS011;12898;50.520;12.152;2022-10-22T04:03:36;24.33;;;16.27;;
24801;SDS011;12898;50.520;12.152;2022-10-22T04:06:06;26.23;;;16.17;;
24801;SDS011;12898;50.520;12.152;2022-10-22T04:08:35;23.30;;;16.27;;
24801;SDS011;12898;50.520;12.152;2022-10-22T04:11:03;22.60;;;15.45;;
24801;SDS011;12898;50.520;12.152;2022-10-22T04:13:29;20.10;;;14.40;;
24801;SDS011;12898;50.520;12.152;2022-10-22T04:15:55;25.55;;;15.60;;
24801;SDS011;12898;50.520;12.152;2022-10-22T04:18:37;28.80;;;17.88;;
24801;SDS011;12898;50.520;12.152;2022-10-22T04:21:04;25.02;;;15.13;;
24801;SDS011;12898;50.520;12.152;2022-10-22T04:23:32;22.55;;;15.35;;
24801;SDS011;12898;50.520;12.152;2022-10-22T04:25:58;23.40;;;15.30;;
24801;SDS011;12898;50.520;12.152;2022-10-22T04:28:25;20.92;;;13.82;;
24801;SDS011;12898;50.520;12.152;2022-10-22T04:30:51;19.52;;;13.75;;
24801;SDS011;12898;50.520;12.152;2022-10-22T04:33:16;25.88;;;15.68;;
24801;SDS011;12898;50.520;12.152;2022-10-22T04:35:42;22.05;;;14.82;;
24801;SDS011;12898;50.520;12.152;2022-10-22T04:38:08;26.75;;;17.33;;
24801;SDS011;12898;50.520;12.152;2022-10-22T04:40:33;25.67;;;17.13;;
24801;SDS011;12898;50.520;12.152;2022-10-22T04:42:59;25.05;;;16.95;;
24801;SDS011;12898;50.520;12.152;2022-10-22T04:45:25;28.33;;;18.25;;
24801;SDS011;12898;50.520;12.152;2022-10-22T04:47:51;32.25;;;19.45;;
24801;SDS011;12898;50.520;12.152;2022-10-22T04:50:16;30.48;;;19.27;;
24801;SDS011;12898;50.520;12.152;2022-10-22T04:52:42;28.35;;;18.60;;
24801;SDS011;12898;50.520;12.152;2022-10-22T04:55:08;29.70;;;18.23;;
24801;SDS011;12898;50.520;12.152;2022-10-22T04:57:34;28.17;;;18.67;;
24801;SDS011;12898;50.520;12.152;2022-10-22T04:59:59;30.45;;;19.38;;
24801;SDS011;12898;50.520;12.152;2022-10-22T05:02:25;27.05;;;18.48;;
24801;SDS011;12898;50.520;12.152;2022-10-22T05:04:51;26.60;;;16.77;;
24801;SDS011;12898;50.520;12.152;2022-10-22T05:07:16;32.55;;;19.17;;
24801;SDS011;12898;50.520;12.152;2022-10-22T05:09:42;27.58;;;18.52;;
24801;SDS011;12898;50.520;12.152;2022-10-22T05:12:08;27.38;;;18.30;;
24801;SDS011;12898;50.520;12.152;2022-10-22T05:14:34;25.38;;;17.63;;
24801;SDS011;12898;50.520;12.152;2022-10-22T05:16:59;26.92;;;16.95;;
24801;SDS011;12898;50.520;12.152;2022-10-22T05:19:26;25.38;;;17.95;;
24801;SDS011;12898;50.520;12.152;2022-10-22T05:21:55;24.50;;;16.52;;
24801;SDS011;12898;50.520;12.152;2022-10-22T05:24:23;25.05;;;16.45;;
24801;SDS011;12898;50.520;12.152;2022-10-22T05:26:51;26.15;;;17.67;;
24801;SDS011;12898;50.520;12.152;2022-10-22T05:29:18;26.70;;;16.77;;
24801;SDS011;12898;50.520;12.152;2022-10-22T05:31:44;27.08;;;16.45;;
24801;SDS011;12898;50.520;12.152;2022-10-22T05:34:10;28.15;;;17.33;;
24801;SDS011;12898;50.520;12.152;2022-10-22T05:36:37;28.05;;;17.20;;
24801;SDS011;12898;50.520;12.152;2022-10-22T05:39:03;24.95;;;15.48;;
24801;SDS011;12898;50.520;12.152;2022-10-22T05:41:29;23.70;;;15.55;;
24801;SDS011;12898;50.520;12.152;2022-10-22T05:43:57;25.83;;;16.02;;
24801;SDS011;12898;50.520;12.152;2022-10-22T05:46:25;27.98;;;16.15;;
24801;SDS011;12898;50.520;12.152;2022-10-22T05:48:54;20.65;;;13.80;;
24801;SDS011;12898;50.520;12.152;2022-10-22T05:51:23;22.00;;;14.27;;
24801;SDS011;12898;50.520;12.152;2022-10-22T05:53:54;23.40;;;14.63;;
24801;SDS011;12898;50.520;12.152;2022-10-22T05:56:23;23.58;;;13.35;;
24801;SDS011;12898;50.520;12.152;2022-10-22T05:58:49;20.33;;;13.27;;
24801;SDS011;12898;50.520;12.152;2022-10-22T06:01:16;18.83;;;11.93;;
24801;SDS011;12898;50.520;12.152;2022-10-22T06:03:48;16.23;;;10.50;;
24801;SDS011;12898;50.520;12.152;2022-10-22T06:06:29;18.75;;;10.60;;
24801;SDS011;12898;50.520;12.152;2022-10-22T06:11:52;16.13;;;9.40;;
24801;SDS011;12898;50.520;12.152;2022-10-22T06:14:19;15.00;;;8.65;;
24801;SDS011;12898;50.520;12.152;2022-10-22T06:16:45;14.68;;;8.43;;
24801;SDS011;12898;50.520;12.152;2022-10-22T06:19:12;13.55;;;7.88;;
24801;SDS011;12898;50.520;12.152;2022-10-22T06:21:42;13.40;;;7.88;;
24801;SDS011;12898;50.520;12.152;2022-10-22T06:24:08;14.18;;;8.18;;
24801;SDS011;12898;50.520;12.152;2022-10-22T06:26:34;13.07;;;7.20;;
24801;SDS011;12898;50.520;12.152;2022-10-22T06:29:00;10.00;;;5.65;;
24801;SDS011;12898;50.520;12.152;2022-10-22T06:31:27;11.50;;;6.45;;
24801;SDS011;12898;50.520;12.152;2022-10-22T06:33:54;5.90;;;3.35;;
24801;SDS011;12898;50.520;12.152;2022-10-22T06:36:21;7.63;;;4.20;;
24801;SDS011;12898;50.520;12.152;2022-10-22T06:38:51;6.88;;;3.80;;
24801;SDS011;12898;50.520;12.152;2022-10-22T06:41:19;7.00;;;3.85;;
24801;SDS011;12898;50.520;12.152;2022-10-22T06:43:45;8.77;;;4.30;;
24801;SDS011;12898;50.520;12.152;2022-10-22T06:46:12;9.77;;;4.72;;
24801;SDS011;12898;50.520;12.152;2022-10-22T06:48:47;9.05;;;4.55;;
24801;SDS011;12898;50.520;12.152;2022-10-22T06:51:22;14.65;;;8.10;;
24801;SDS011;12898;50.520;12.152;2022-10-22T06:53:48;11.18;;;5.70;;
24801;SDS011;12898;50.520;12.152;2022-10-22T06:56:16;8.68;;;5.05;;
24801;SDS011;12898;50.520;12.152;2022-10-22T06:58:51;8.90;;;4.97;;
24801;SDS011;12898;50.520;12.152;2022-10-22T07:01:19;8.75;;;4.70;;
24801;SDS011;12898;50.520;12.152;2022-10-22T07:03:49;7.30;;;3.78;;
24801;SDS011;12898;50.520;12.152;2022-10-22T07:06:15;8.35;;;4.03;;
24801;SDS011;12898;50.520;12.152;2022-10-22T07:08:42;8.55;;;4.13;;
24801;SDS011;12898;50.520;12.152;2022-10-22T07:11:12;10.05;;;4.82;;
24801;SDS011;12898;50.520;12.152;2022-10-22T07:13:49;16.50;;;8.82;;
24801;SDS011;12898;50.520;12.152;2022-10-22T07:16:18;15.20;;;8.77;;
24801;SDS011;12898;50.520;12.152;2022-10-22T07:18:44;12.60;;;7.18;;
24801;SDS011;12898;50.520;12.152;2022-10-22T07:21:11;11.20;;;5.82;;
24801;SDS011;12898;50.520;12.152;2022-10-22T07:23:39;10.60;;;5.88;;
24801;SDS011;12898;50.520;12.152;2022-10-22T07:26:06;7.82;;;4.60;;
24801;SDS011;12898;50.520;12.152;2022-10-22T07:28:33;10.27;;;5.60;;
24801;SDS011;12898;50.520;12.152;2022-10-22T07:31:01;10.23;;;5.53;;
24801;SDS011;12898;50.520;12.152;2022-10-22T07:33:27;11.68;;;6.10;;
24801;SDS011;12898;50.520;12.152;2022-10-22T07:35:57;10.60;;;5.75;;
24801;SDS011;12898;50.520;12.152;2022-10-22T07:38:24;11.63;;;5.35;;
24801;SDS011;12898;50.520;12.152;2022-10-22T07:40:50;10.52;;;4.72;;
24801;SDS011;12898;50.520;12.152;2022-10-22T07:43:16;7.00;;;4.18;;
24801;SDS011;12898;50.520;12.152;2022-10-22T07:45:41;8.85;;;4.32;;
24801;SDS011;12898;50.520;12.152;2022-10-22T07:48:07;8.02;;;4.05;;
24801;SDS011;12898;50.520;12.152;2022-10-22T07:50:33;8.45;;;4.20;;
24801;SDS011;12898;50.520;12.152;2022-10-22T07:52:58;6.28;;;4.20;;
24801;SDS011;12898;50.520;12.152;2022-10-22T07:55:24;7.80;;;4.60;;
24801;SDS011;12898;50.520;12.152;2022-10-22T07:57:50;10.23;;;4.45;;
24801;SDS011;12898;50.520;12.152;2022-10-22T08:00:16;8.57;;;4.38;;
24801;SDS011;12898;50.520;12.152;2022-10-22T08:02:42;8.38;;;4.20;;
24801;SDS011;12898;50.520;12.152;2022-10-22T08:05:10;8.25;;;4.40;;
24801;SDS011;12898;50.520;12.152;2022-10-22T08:07:37;8.55;;;4.00;;
24801;SDS011;12898;50.520;12.152;2022-10-22T08:10:04;5.70;;;3.60;;
24801;SDS011;12898;50.520;12.152;2022-10-22T08:12:31;5.20;;;2.95;;
24801;SDS011;12898;50.520;12.152;2022-10-22T08:14:57;6.40;;;2.70;;
24801;SDS011;12898;50.520;12.152;2022-10-22T08:17:24;4.45;;;2.83;;
24801;SDS011;12898;50.520;12.152;2022-10-22T08:19:51;9.70;;;3.15;;
24801;SDS011;12898;50.520;12.152;2022-10-22T08:22:17;8.05;;;3.42;;
24801;SDS011;12898;50.520;12.152;2022-10-22T08:24:43;6.82;;;3.40;;
24801;SDS011;12898;50.520;12.152;2022-10-22T08:27:08;7.10;;;3.53;;
24801;SDS011;12898;50.520;12.152;2022-10-22T08:29:34;7.60;;;3.33;;
24801;SDS011;12898;50.520;12.152;2022-10-22T08:32:00;7.78;;;3.22;;
24801;SDS011;12898;50.520;12.152;2022-10-22T08:34:29;8.00;;;3.45;;
24801;SDS011;12898;50.520;12.152;2022-10-22T08:36:55;4.90;;;2.67;;
24801;SDS011;12898;50.520;12.152;2022-10-22T08:39:20;5.85;;;3.10;;
24801;SDS011;12898;50.520;12.152;2022-10-22T08:41:54;7.18;;;4.05;;
24801;SDS011;12898;50.520;12.152;2022-10-22T08:44:52;7.50;;;3.90;;
24801;SDS011;12898;50.520;12.152;2022-10-22T08:47:52;7.18;;;4.07;;
24801;SDS011;12898;50.520;12.152;2022-10-22T08:50:45;7.80;;;3.67;;
24801;SDS011;12898;50.520;12.152;2022-10-22T08:53:17;4.55;;;3.15;;
24801;SDS011;12898;50.520;12.152;2022-10-22T08:56:34;6.10;;;3.60;;
24801;SDS011;12898;50.520;12.152;2022-10-22T08:59:13;6.20;;;3.78;;
24801;SDS011;12898;50.520;12.152;2022-10-22T09:01:48;8.55;;;4.03;;
24801;SDS011;12898;50.520;12.152;2022-10-22T09:04:20;8.63;;;3.80;;
24801;SDS011;12898;50.520;12.152;2022-10-22T09:06:56;6.93;;;3.88;;
24801;SDS011;12898;50.520;12.152;2022-10-22T09:09:24;6.07;;;3.72;;
24801;SDS011;12898;50.520;12.152;2022-10-22T09:11:56;8.45;;;4.20;;
24801;SDS011;12898;50.520;12.152;2022-10-22T09:14:24;10.80;;;4.45;;
24801;SDS011;12898;50.520;12.152;2022-10-22T09:25:49;4.82;;;2.50;;
24801;SDS011;12898;50.520;12.152;2022-10-22T09:28:16;8.85;;;2.67;;
24801;SDS011;12898;50.520;12.152;2022-10-22T09:30:41;7.20;;;2.88;;
24801;SDS011;12898;50.520;12.152;2022-10-22T09:35:34;4.68;;;2.60;;
24801;SDS011;12898;50.520;12.152;2022-10-22T09:38:13;7.15;;;3.05;;
24801;SDS011;12898;50.520;12.152;2022-10-22T09:40:45;5.70;;;2.95;;
24801;SDS011;12898;50.520;12.152;2022-10-22T09:43:16;5.63;;;2.83;;
24801;SDS011;12898;50.520;12.152;2022-10-22T09:45:43;6.88;;;2.78;;
24801;SDS011;12898;50.520;12.152;2022-10-22T09:48:20;5.47;;;2.70;;
24801;SDS011;12898;50.520;12.152;2022-10-22T09:51:20;4.90;;;2.83;;
24801;SDS011;12898;50.520;12.152;2022-10-22T09:53:56;3.67;;;2.40;;
24801;SDS011;12898;50.520;12.152;2022-10-22T09:59:05;6.43;;;2.60;;
24801;SDS011;12898;50.520;12.152;2022-10-22T10:01:42;3.17;;;2.22;;
24801;SDS011;12898;50.520;12.152;2022-10-22T10:04:10;4.10;;;1.88;;
24801;SDS011;12898;50.520;12.152;2022-10-22T10:06:40;2.60;;;1.80;;
24801;SDS011;12898;50.520;12.152;2022-10-22T10:09:15;2.72;;;1.58;;
24801;SDS011;12898;50.520;12.152;2022-10-22T10:11:45;4.28;;;1.52;;
24801;SDS011;12898;50.520;12.152;2022-10-22T10:14:34;1.88;;;1.25;;
24801;SDS011;12898;50.520;12.152;2022-10-22T10:23:49;1.65;;;1.30;;
24801;SDS011;12898;50.520;12.152;2022-10-22T10:27:14;1.83;;;1.55;;
24801;SDS011;12898;50.520;12.152;2022-10-22T10:29:53;3.08;;;1.33;;
24801;SDS011;12898;50.520;12.152;2022-10-22T10:32:58;1.35;;;1.17;;
24801;SDS011;12898;50.520;12.152;2022-10-22T10:35:42;4.00;;;1.08;;
24801;SDS011;12898;50.520;12.152;2022-10-22T10:38:41;2.60;;;1.38;;
24801;SDS011;12898;50.520;12.152;2022-10-22T10:47:49;2.28;;;1.25;;
24801;SDS011;12898;50.520;12.152;2022-10-22T10:53:13;3.45;;;1.15;;
24801;SDS011;12898;50.520;12.152;2022-10-22T11:02:12;3.15;;;1.20;;
24801;SDS011;12898;50.520;12.152;2022-10-22T11:11:04;1.50;;;0.90;;
24801;SDS011;12898;50.520;12.152;2022-10-22T11:13:38;3.42;;;1.08;;
24801;SDS011;12898;50.520;12.152;2022-10-22T11:22:00;2.78;;;1.10;;
24801;SDS011;12898;50.520;12.152;2022-10-22T11:27:49;1.73;;;0.90;;
24801;SDS011;12898;50.520;12.152;2022-10-22T11:30:21;3.15;;;1.05;;
24801;SDS011;12898;50.520;12.152;2022-10-22T11:32:54;1.30;;;0.95;;
24801;SDS011;12898;50.520;12.152;2022-10-22T11:35:46;3.55;;;1.17;;
24801;SDS011;12898;50.520;12.152;2022-10-22T11:38:15;2.53;;;1.35;;
24801;SDS011;12898;50.520;12.152;2022-10-22T11:40:49;2.55;;;1.40;;
24801;SDS011;12898;50.520;12.152;2022-10-22T11:43:32;2.80;;;1.20;;
24801;SDS011;12898;50.520;12.152;2022-10-22T11:48:41;2.60;;;1.30;;
24801;SDS011;12898;50.520;12.152;2022-10-22T11:54:01;2.85;;;1.33;;
24801;SDS011;12898;50.520;12.152;2022-10-22T11:59:52;3.90;;;1.00;;
24801;SDS011;12898;50.520;12.152;2022-10-22T12:10:56;4.50;;;1.55;;
24801;SDS011;12898;50.520;12.152;2022-10-22T12:16:56;2.20;;;1.10;;
24801;SDS011;12898;50.520;12.152;2022-10-22T12:19:30;2.13;;;1.05;;
24801;SDS011;12898;50.520;12.152;2022-10-22T12:24:53;5.75;;;1.58;;
24801;SDS011;12898;50.520;12.152;2022-10-22T12:30:18;5.32;;;1.50;;
24801;SDS011;12898;50.520;12.152;2022-10-22T12:32:52;3.35;;;1.60;;
24801;SDS011;12898;50.520;12.152;2022-10-22T12:35:25;4.70;;;1.45;;
24801;SDS011;12898;50.520;12.152;2022-10-22T12:37:57;4.72;;;1.55;;
24801;SDS011;12898;50.520;12.152;2022-10-22T12:40:32;2.97;;;1.58;;
24801;SDS011;12898;50.520;12.152;2022-10-22T12:43:00;4.57;;;1.77;;
24801;SDS011;12898;50.520;12.152;2022-10-22T12:45:35;5.43;;;1.73;;
24801;SDS011;12898;50.520;12.152;2022-10-22T12:48:03;3.63;;;1.85;;
24801;SDS011;12898;50.520;12.152;2022-10-22T12:50:36;4.63;;;1.92;;
24801;SDS011;12898;50.520;12.152;2022-10-22T12:53:17;6.65;;;1.95;;
24801;SDS011;12898;50.520;12.152;2022-10-22T12:55:51;5.72;;;1.98;;
24801;SDS011;12898;50.520;12.152;2022-10-22T12:58:20;6.30;;;2.20;;
24801;SDS011;12898;50.520;12.152;2022-10-22T13:00:56;5.95;;;1.83;;
24801;SDS011;12898;50.520;12.152;2022-10-22T13:03:35;4.40;;;1.90;;
24801;SDS011;12898;50.520;12.152;2022-10-22T13:11:32;6.63;;;2.28;;
24801;SDS011;12898;50.520;12.152;2022-10-22T13:17:04;6.55;;;2.13;;
24801;SDS011;12898;50.520;12.152;2022-10-22T13:27:53;4.55;;;1.92;;
24801;SDS011;12898;50.520;12.152;2022-10-22T13:30:32;4.97;;;2.08;;
24801;SDS011;12898;50.520;12.152;2022-10-22T13:33:04;5.80;;;1.98;;
24801;SDS011;12898;50.520;12.152;2022-10-22T13:35:51;5.25;;;2.17;;
24801;SDS011;12898;50.520;12.152;2022-10-22T13:38:18;3.63;;;2.13;;
24801;SDS011;12898;50.520;12.152;2022-10-22T13:40:47;5.88;;;2.30;;
24801;SDS011;12898;50.520;12.152;2022-10-22T13:43:14;4.18;;;2.13;;
24801;SDS011;12898;50.520;12.152;2022-10-22T13:45:40;6.53;;;2.05;;
24801;SDS011;12898;50.520;12.152;2022-10-22T13:48:09;7.20;;;1.90;;
24801;SDS011;12898;50.520;12.152;2022-10-22T13:50:39;3.47;;;1.75;;
24801;SDS011;12898;50.520;12.152;2022-10-22T13:53:05;6.10;;;1.85;;
24801;SDS011;12898;50.520;12.152;2022-10-22T13:55:43;11.52;;;2.03;;
24801;SDS011;12898;50.520;12.152;2022-10-22T13:58:10;5.68;;;1.65;;
24801;SDS011;12898;50.520;12.152;2022-10-22T14:00:42;5.10;;;2.10;;
24801;SDS011;12898;50.520;12.152;2022-10-22T14:03:13;6.07;;;2.20;;
24801;SDS011;12898;50.520;12.152;2022-10-22T14:05:41;8.63;;;2.60;;
24801;SDS011;12898;50.520;12.152;2022-10-22T14:08:11;2.55;;;1.52;;
24801;SDS011;12898;50.520;12.152;2022-10-22T14:10:39;7.80;;;2.03;;
24801;SDS011;12898;50.520;12.152;2022-10-22T14:13:12;7.63;;;2.10;;
24801;SDS011;12898;50.520;12.152;2022-10-22T14:15:40;6.28;;;2.17;;
24801;SDS011;12898;50.520;12.152;2022-10-22T14:18:07;34.72;;;4.38;;
24801;SDS011;12898;50.520;12.152;2022-10-22T14:20:40;5.93;;;2.10;;
24801;SDS011;12898;50.520;12.152;2022-10-22T14:23:17;5.72;;;1.90;;
24801;SDS011;12898;50.520;12.152;2022-10-22T14:25:46;5.38;;;1.95;;
24801;SDS011;12898;50.520;12.152;2022-10-22T14:28:14;6.07;;;1.83;;
24801;SDS011;12898;50.520;12.152;2022-10-22T14:30:41;3.40;;;1.80;;
24801;SDS011;12898;50.520;12.152;2022-10-22T14:33:22;6.40;;;2.20;;
24801;SDS011;12898;50.520;12.152;2022-10-22T14:35:52;6.10;;;2.30;;
24801;SDS011;12898;50.520;12.152;2022-10-22T14:38:21;7.00;;;1.95;;
24801;SDS011;12898;50.520;12.152;2022-10-22T14:40:47;4.80;;;2.05;;
24801;SDS011;12898;50.520;12.152;2022-10-22T14:43:21;5.72;;;1.77;;
24801;SDS011;12898;50.520;12.152;2022-10-22T14:45:52;7.07;;;1.70;;
24801;SDS011;12898;50.520;12.152;2022-10-22T14:48:18;4.03;;;1.90;;
24801;SDS011;12898;50.520;12.152;2022-10-22T14:50:44;6.43;;;2.05;;
24801;SDS011;12898;50.520;12.152;2022-10-22T14:53:11;4.15;;;2.00;;
24801;SDS011;12898;50.520;12.152;2022-10-22T14:55:38;4.03;;;1.85;;
24801;SDS011;12898;50.520;12.152;2022-10-22T14:58:08;3.95;;;1.73;;
24801;SDS011;12898;50.520;12.152;2022-10-22T15:00:35;3.88;;;1.83;;
24801;SDS011;12898;50.520;12.152;2022-10-22T15:03:07;5.65;;;1.90;;
24801;SDS011;12898;50.520;12.152;2022-10-22T15:05:33;7.32;;;1.75;;
24801;SDS011;12898;50.520;12.152;2022-10-22T15:08:00;7.50;;;2.22;;
24801;SDS011;12898;50.520;12.152;2022-10-22T15:10:26;3.63;;;1.75;;
24801;SDS011;12898;50.520;12.152;2022-10-22T15:12:52;5.05;;;2.10;;
24801;SDS011;12898;50.520;12.152;2022-10-22T15:15:17;4.28;;;1.90;;
24801;SDS011;12898;50.520;12.152;2022-10-22T15:17:43;6.82;;;2.00;;
24801;SDS011;12898;50.520;12.152;2022-10-22T15:20:09;6.60;;;2.03;;
24801;SDS011;12898;50.520;12.152;2022-10-22T15:22:35;5.57;;;2.15;;
24801;SDS011;12898;50.520;12.152;2022-10-22T15:25:02;5.13;;;2.22;;
24801;SDS011;12898;50.520;12.152;2022-10-22T15:27:31;5.15;;;2.30;;
24801;SDS011;12898;50.520;12.152;2022-10-22T15:29:57;7.07;;;2.38;;
24801;SDS011;12898;50.520;12.152;2022-10-22T15:32:26;4.05;;;2.40;;
24801;SDS011;12898;50.520;12.152;2022-10-22T15:34:53;6.72;;;2.28;;
24801;SDS011;12898;50.520;12.152;2022-10-22T15:37:20;7.95;;;3.35;;
24801;SDS011;12898;50.520;12.152;2022-10-22T15:39:45;8.68;;;3.53;;
24801;SDS011;12898;50.520;12.152;2022-10-22T15:42:14;5.53;;;2.45;;
24801;SDS011;12898;50.520;12.152;2022-10-22T15:44:40;4.80;;;2.50;;
24801;SDS011;12898;50.520;12.152;2022-10-22T15:47:10;7.85;;;2.80;;
24801;SDS011;12898;50.520;12.152;2022-10-22T15:49:36;6.03;;;2.85;;
24801;SDS011;12898;50.520;12.152;2022-10-22T15:52:04;6.05;;;2.42;;
24801;SDS011;12898;50.520;12.152;2022-10-22T15:54:30;6.32;;;2.42;;
24801;SDS011;12898;50.520;12.152;2022-10-22T15:56:57;6.20;;;2.28;;
24801;SDS011;12898;50.520;12.152;2022-10-22T15:59:26;7.25;;;2.35;;
24801;SDS011;12898;50.520;12.152;2022-10-22T16:01:52;6.80;;;2.50;;
24801;SDS011;12898;50.520;12.152;2022-10-22T16:04:17;5.50;;;2.42;;
24801;SDS011;12898;50.520;12.152;2022-10-22T16:06:45;10.57;;;2.90;;
24801;SDS011;12898;50.520;12.152;2022-10-22T16:09:14;5.15;;;2.70;;
24801;SDS011;12898;50.520;12.152;2022-10-22T16:11:43;9.73;;;2.50;;
24801;SDS011;12898;50.520;12.152;2022-10-22T16:14:10;6.38;;;2.70;;
24801;SDS011;12898;50.520;12.152;2022-10-22T16:16:40;7.93;;;2.75;;
24801;SDS011;12898;50.520;12.152;2022-10-22T16:19:12;6.07;;;2.67;;
24801;SDS011;12898;50.520;12.152;2022-10-22T16:21:39;4.75;;;2.40;;
24801;SDS011;12898;50.520;12.152;2022-10-22T16:24:06;6.63;;;3.05;;
24801;SDS011;12898;50.520;12.152;2022-10-22T16:26:33;7.05;;;2.95;;
24801;SDS011;12898;50.520;12.152;2022-10-22T16:28:59;6.65;;;2.90;;
24801;SDS011;12898;50.520;12.152;2022-10-22T16:31:25;6.55;;;2.85;;
24801;SDS011;12898;50.520;12.152;2022-10-22T16:33:51;8.25;;;3.15;;
24801;SDS011;12898;50.520;12.152;2022-10-22T16:36:18;6.60;;;3.30;;
24801;SDS011;12898;50.520;12.152;2022-10-22T16:38:45;8.88;;;3.58;;
24801;SDS011;12898;50.520;12.152;2022-10-22T16:41:15;7.15;;;3.80;;
24801;SDS011;12898;50.520;12.152;2022-10-22T16:43:47;8.73;;;3.60;;
24801;SDS011;12898;50.520;12.152;2022-10-22T16:46:16;7.93;;;4.25;;